createdAt,value
2022-08-07T00:00:12.947Z,99139.19
2022-08-07T00:02:46.164Z,99134.63
2022-08-07T00:05:13.557Z,99137.75
2022-08-07T00:07:47.198Z,99135.25
2022-08-07T00:10:26.005Z,99134.44
2022-08-07T00:13:01.789Z,99130.88
2022-08-07T00:15:38.485Z,99131.53
2022-08-07T00:18:23.996Z,99127.56
2022-08-07T00:21:01.364Z,99132.56
2022-08-07T00:23:36.158Z,99128.44
2022-08-07T00:26:18.829Z,99137.78
2022-08-07T00:29:01.164Z,99129.50
2022-08-07T00:31:37.874Z,99128.25
2022-08-07T00:34:08.797Z,99126.53
2022-08-07T00:36:43.205Z,99122.81
2022-08-07T00:39:23.180Z,99124.47
2022-08-07T00:42:01.855Z,99117.69
2022-08-07T00:44:41.349Z,99115.00
2022-08-07T00:48:07.757Z,99104.03
2022-08-07T00:50:19.309Z,99097.41
2022-08-07T00:52:55.318Z,99093.09
2022-08-07T00:56:00.476Z,99091.66
2022-08-07T00:58:22.136Z,99091.41
2022-08-07T01:00:56.154Z,99103.22
2022-08-07T01:03:56.860Z,99102.56
2022-08-07T01:06:16.145Z,99096.97
2022-08-07T01:08:53.520Z,99097.41
2022-08-07T01:12:09.036Z,99090.22
2022-08-07T01:14:16.654Z,99082.31
2022-08-07T01:16:51.168Z,99081.66
2022-08-07T01:19:19.727Z,99084.81
2022-08-07T01:21:55.587Z,99086.44
2022-08-07T01:24:22.489Z,99093.28
2022-08-07T01:26:58.173Z,99094.53
2022-08-07T01:29:33.974Z,99085.63
2022-08-07T01:32:01.071Z,99086.91
2022-08-07T01:34:39.152Z,99077.13
2022-08-07T01:37:12.140Z,99069.66
2022-08-07T01:39:46.479Z,99069.66
2022-08-07T01:42:40.088Z,99074.44
2022-08-07T01:45:18.162Z,99075.69
2022-08-07T01:48:19.876Z,99079.63
2022-08-07T01:50:45.912Z,99077.13
2022-08-07T01:53:21.630Z,99082.16
2022-08-07T01:56:10.782Z,99075.09
2022-08-07T01:58:48.164Z,99071.75
2022-08-07T02:01:25.531Z,99079.44
2022-08-07T02:04:16.190Z,99075.09
2022-08-07T02:06:43.172Z,99072.16
2022-08-07T02:09:51.900Z,99069.22
2022-08-07T02:12:29.283Z,99070.66
2022-08-07T02:15:05.910Z,99067.06
2022-08-07T02:17:40.220Z,99065.59
2022-08-07T02:20:19.702Z,99060.03
2022-08-07T02:22:57.152Z,99060.78
2022-08-07T02:26:10.127Z,99058.09
2022-08-07T02:28:25.442Z,99058.78
2022-08-07T02:31:28.156Z,99062.03
2022-08-07T02:34:03.295Z,99059.28
2022-08-07T02:36:38.261Z,99063.38
2022-08-07T02:39:42.909Z,99065.19
2022-08-07T02:42:16.303Z,99062.75
2022-08-07T02:44:52.047Z,99062.19
2022-08-07T02:47:23.574Z,99063.78
2022-08-07T02:49:59.853Z,99064.78
2022-08-07T02:52:38.309Z,99064.41
2022-08-07T02:55:15.341Z,99049.16
2022-08-07T02:57:59.015Z,99042.56
2022-08-07T03:00:33.315Z,99041.75
2022-08-07T03:03:00.140Z,99045.34
2022-08-07T03:05:40.135Z,99042.41
2022-08-07T03:08:10.100Z,99046.78
2022-08-07T03:10:46.595Z,99045.31
2022-08-07T03:13:15.475Z,99045.69
2022-08-07T03:15:56.500Z,99039.25
2022-08-07T03:18:35.008Z,99045.50
2022-08-07T03:21:11.368Z,99045.06
2022-08-07T03:24:21.081Z,99044.22
2022-08-07T03:26:33.780Z,99046.06
2022-08-07T03:29:11.210Z,99041.72
2022-08-07T03:31:46.456Z,99029.72
2022-08-07T03:34:27.179Z,99025.97
2022-08-07T03:37:01.245Z,99035.56
2022-08-07T03:39:59.403Z,99035.06
2022-08-07T03:42:41.151Z,99028.41
2022-08-07T03:45:30.437Z,99030.47
2022-08-07T03:47:58.878Z,99027.19
2022-08-07T03:50:33.122Z,99018.09
2022-08-07T03:53:01.581Z,99028.09
2022-08-07T03:55:53.119Z,99023.09
2022-08-07T03:59:04.834Z,99022.44
2022-08-07T04:01:17.172Z,99025.47
2022-08-07T04:03:49.902Z,99021.31
2022-08-07T04:06:37.402Z,99030.97
2022-08-07T04:09:05.404Z,99027.28
2022-08-07T04:12:21.175Z,99034.13
2022-08-07T04:14:38.782Z,99034.19
2022-08-07T04:17:20.518Z,99037.50
2022-08-07T04:19:55.395Z,99044.94
2022-08-07T04:22:27.464Z,99047.19
2022-08-07T04:25:03.134Z,99045.09
2022-08-07T04:27:39.409Z,99042.97
2022-08-07T04:30:21.335Z,99035.31
2022-08-07T04:33:14.010Z,99042.28
2022-08-07T04:36:06.622Z,99043.50
2022-08-07T04:38:40.104Z,99049.06
2022-08-07T04:41:07.787Z,99046.63
2022-08-07T04:44:12.607Z,99050.72
2022-08-07T04:46:35.953Z,99051.09
2022-08-07T04:49:27.682Z,99052.34
2022-08-07T04:52:02.109Z,99049.66
2022-08-07T04:54:53.607Z,99046.78
2022-08-07T04:58:11.835Z,99056.75
2022-08-07T05:00:32.842Z,99061.75
2022-08-07T05:03:16.737Z,99054.38
2022-08-07T05:06:19.459Z,99052.28
2022-08-07T05:09:01.352Z,99051.50
2022-08-07T05:11:57.159Z,99060.19
2022-08-07T05:14:54.137Z,99054.44
2022-08-07T05:17:51.829Z,99050.97
2022-08-07T05:20:32.133Z,99049.94
2022-08-07T05:23:15.457Z,99049.53
2022-08-07T05:26:10.738Z,99036.38
2022-08-07T05:28:40.519Z,99038.84
2022-08-07T05:31:16.661Z,99042.66
2022-08-07T05:34:01.387Z,99041.03
2022-08-07T05:36:53.210Z,99042.47
2022-08-07T05:40:17.436Z,99037.72
2022-08-07T05:42:34.924Z,99034.84
2022-08-07T05:45:26.401Z,99056.03
2022-08-07T05:48:05.301Z,99050.03
2022-08-07T05:50:34.408Z,99045.88
2022-08-07T05:54:13.912Z,99051.25
2022-08-07T05:56:01.881Z,99049.44
2022-08-07T05:58:37.215Z,99054.22
2022-08-07T06:01:08.449Z,99056.66
2022-08-07T06:03:56.598Z,99053.53
2022-08-07T06:06:29.441Z,99054.22
2022-08-07T06:09:04.392Z,99049.84
2022-08-07T06:11:32.732Z,99049.81
2022-08-07T06:14:11.703Z,99048.94
2022-08-07T06:16:50.004Z,99047.34
2022-08-07T06:19:47.887Z,99045.09
2022-08-07T06:22:23.914Z,99046.53
2022-08-07T06:24:58.360Z,99043.28
2022-08-07T06:27:43.919Z,99041.47
2022-08-07T06:30:35.146Z,99048.50
2022-08-07T06:33:16.194Z,99044.41
2022-08-07T06:35:45.477Z,99035.50
2022-08-07T06:38:30.482Z,99046.31
2022-08-07T06:41:00.245Z,99045.66
2022-08-07T06:43:40.119Z,99051.28
2022-08-07T06:46:13.502Z,99047.56
2022-08-07T06:48:47.108Z,99044.47
2022-08-07T06:51:30.965Z,99049.22
2022-08-07T06:55:34.390Z,99051.34
2022-08-07T06:57:00.923Z,99049.47
2022-08-07T07:00:12.030Z,99045.59
2022-08-07T07:02:53.805Z,99055.72
2022-08-07T07:06:03.226Z,99056.53
2022-08-07T07:08:18.905Z,99052.59
2022-08-07T07:11:13.130Z,99051.78
2022-08-07T07:13:58.781Z,99047.78
2022-08-07T07:16:30.946Z,99049.22
2022-08-07T07:19:54.454Z,99046.09
2022-08-07T07:22:11.788Z,99048.34
2022-08-07T07:25:02.632Z,99043.94
2022-08-07T07:27:55.562Z,99042.94
2022-08-07T07:30:26.607Z,99048.31
2022-08-07T07:33:12.357Z,99047.88
2022-08-07T07:36:03.847Z,99038.81
2022-08-07T07:38:47.614Z,99041.75
2022-08-07T07:41:16.093Z,99038.44
2022-08-07T07:44:17.435Z,99040.75
2022-08-07T07:46:55.648Z,99034.56
2022-08-07T07:50:34.008Z,99036.06
2022-08-07T07:52:28.313Z,99032.78
2022-08-07T07:54:55.822Z,99028.25
2022-08-07T07:57:52.606Z,99034.47
2022-08-07T08:00:29.779Z,99038.22
2022-08-07T08:03:16.336Z,99042.16
2022-08-07T08:05:54.762Z,99039.09
2022-08-07T08:08:36.837Z,99040.38
2022-08-07T08:11:08.126Z,99029.59
2022-08-07T08:13:54.006Z,99025.03
2022-08-07T08:16:37.749Z,99033.34
2022-08-07T08:20:16.137Z,99030.88
2022-08-07T08:22:32.734Z,99030.25
2022-08-07T08:25:41.877Z,99023.59
2022-08-07T08:28:37.374Z,99026.72
2022-08-07T08:31:05.409Z,99030.44
2022-08-07T08:33:41.120Z,99032.94
2022-08-07T08:36:46.403Z,99031.28
2022-08-07T08:39:13.651Z,99037.50
2022-08-07T08:42:04.114Z,99037.94
2022-08-07T08:44:44.823Z,99036.28
2022-08-07T08:47:52.045Z,99035.84
2022-08-07T08:50:40.240Z,99030.69
2022-08-07T08:53:33.077Z,99041.25
2022-08-07T08:56:03.021Z,99026.94
2022-08-07T08:58:57.069Z,99029.03
2022-08-07T09:01:50.886Z,99026.50
2022-08-07T09:04:43.079Z,99026.31
2022-08-07T09:07:11.331Z,99025.50
2022-08-07T09:09:57.115Z,99024.66
2022-08-07T09:12:42.690Z,99020.28
2022-08-07T09:16:23.066Z,99026.34
2022-08-07T09:18:41.455Z,99024.66
2022-08-07T09:22:09.863Z,99019.66
2022-08-07T09:25:00.260Z,99015.72
2022-08-07T09:27:59.530Z,99019.25
2022-08-07T09:30:59.086Z,99005.53
2022-08-07T09:33:53.164Z,99006.78
2022-08-07T09:36:33.572Z,99010.75
2022-08-07T09:39:55.289Z,99012.59
2022-08-07T09:42:09.976Z,99009.88
2022-08-07T09:47:25.813Z,99008.84
2022-08-07T09:48:12.278Z,99012.16
2022-08-07T09:50:54.409Z,99013.22
2022-08-07T09:53:26.410Z,99003.47
2022-08-07T09:56:41.812Z,99004.69
2022-08-07T09:59:15.019Z,98996.78
2022-08-07T10:02:03.344Z,98999.91
2022-08-07T10:04:45.977Z,98988.44
2022-08-07T10:07:52.164Z,98990.94
2022-08-07T10:11:00.243Z,98987.78
2022-08-07T10:13:54.986Z,98980.94
2022-08-07T10:16:25.078Z,98982.78
2022-08-07T10:19:20.066Z,98973.81
2022-08-07T10:22:16.014Z,98981.25
2022-08-07T10:24:56.051Z,98972.31
2022-08-07T10:27:46.004Z,98971.25
2022-08-07T10:30:33.240Z,98959.50
2022-08-07T10:33:00.229Z,98960.34
2022-08-07T10:35:56.601Z,98954.66
2022-08-07T10:38:48.734Z,98954.84
2022-08-07T10:41:53.052Z,98951.03
2022-08-07T10:44:45.424Z,98944.31
2022-08-07T10:47:27.107Z,98945.72
2022-08-07T10:50:26.533Z,98947.53
2022-08-07T10:53:21.397Z,98942.03
2022-08-07T10:56:20.869Z,98949.13
2022-08-07T10:59:09.606Z,98937.78
2022-08-07T11:02:02.771Z,98933.13
2022-08-07T11:04:51.329Z,98928.94
2022-08-07T11:07:58.604Z,98933.66
2022-08-07T11:10:32.299Z,98932.16
2022-08-07T11:13:16.786Z,98921.63
2022-08-07T11:15:57.379Z,98921.94
2022-08-07T11:18:37.083Z,98922.72
2022-08-07T11:21:23.164Z,98924.72
2022-08-07T11:24:01.253Z,98922.19
2022-08-07T11:26:48.256Z,98918.78
2022-08-07T11:29:42.516Z,98920.88
2022-08-07T11:32:36.092Z,98917.78
2022-08-07T11:35:16.665Z,98919.84
2022-08-07T11:38:17.570Z,98923.13
2022-08-07T11:41:00.076Z,98917.88
2022-08-07T11:44:10.740Z,98918.03
2022-08-07T11:46:38.835Z,98911.13
2022-08-07T11:50:11.398Z,98913.28
2022-08-07T11:52:29.278Z,98904.56
2022-08-07T11:55:18.527Z,98899.88
2022-08-07T11:58:16.285Z,98902.81
2022-08-07T12:01:13.064Z,98893.03
2022-08-07T12:03:47.321Z,98897.03
2022-08-07T12:06:39.027Z,98891.81
2022-08-07T12:09:16.373Z,98890.31
2022-08-07T12:12:09.171Z,98878.41
2022-08-07T12:15:17.430Z,98881.94
2022-08-07T12:18:29.755Z,98877.94
2022-08-07T12:21:55.086Z,98877.34
2022-08-07T12:24:37.316Z,98873.34
2022-08-07T12:27:28.025Z,98882.88
2022-08-07T12:30:13.165Z,98879.25
2022-08-07T12:32:49.114Z,98880.84
2022-08-07T12:35:16.963Z,98877.06
2022-08-07T12:38:17.800Z,98869.59
2022-08-07T12:40:55.123Z,98863.84
2022-08-07T12:44:03.502Z,98862.09
2022-08-07T12:46:32.699Z,98866.41
2022-08-07T12:49:49.133Z,98862.81
2022-08-07T12:52:23.234Z,98867.41
2022-08-07T12:55:16.590Z,98860.47
2022-08-07T12:58:01.264Z,98853.66
2022-08-07T13:00:49.625Z,98855.97
2022-08-07T13:03:59.352Z,98860.44
2022-08-07T13:06:27.185Z,98848.19
2022-08-07T13:10:19.633Z,98857.47
2022-08-07T13:12:15.113Z,98857.22
2022-08-07T13:15:09.029Z,98860.69
2022-08-07T13:18:01.164Z,98856.81
2022-08-07T13:20:39.561Z,98852.56
2022-08-07T13:24:01.625Z,98844.50
2022-08-07T13:26:18.265Z,98847.78
2022-08-07T13:28:50.177Z,98852.31
2022-08-07T13:31:55.086Z,98847.78
2022-08-07T13:34:35.858Z,98844.69
2022-08-07T13:37:41.140Z,98843.44
2022-08-07T13:40:36.404Z,98840.16
2022-08-07T13:43:11.812Z,98838.88
2022-08-07T13:46:10.948Z,98837.91
2022-08-07T13:48:51.722Z,98835.34
2022-08-07T13:52:05.549Z,98831.06
2022-08-07T13:54:22.588Z,98830.25
2022-08-07T13:57:00.105Z,98825.78
2022-08-07T13:59:32.357Z,98828.75
2022-08-07T14:02:15.212Z,98823.97
2022-08-07T14:05:04.232Z,98823.97
2022-08-07T14:08:00.100Z,98829.22
2022-08-07T14:10:41.976Z,98830.09
2022-08-07T14:13:12.898Z,98828.63
2022-08-07T14:15:51.290Z,98826.69
2022-08-07T14:18:29.251Z,98832.97
2022-08-07T14:22:01.286Z,98825.22
2022-08-07T14:24:23.006Z,98833.72
2022-08-07T14:28:09.743Z,98818.97
2022-08-07T14:30:05.288Z,98824.84
2022-08-07T14:32:42.928Z,98823.69
2022-08-07T14:35:44.675Z,98818.50
2022-08-07T14:38:31.187Z,98818.63
2022-08-07T14:41:33.953Z,98820.41
2022-08-07T14:44:22.020Z,98818.03
2022-08-07T14:47:08.420Z,98813.34
2022-08-07T14:49:56.507Z,98816.28
2022-08-07T14:52:28.772Z,98816.28
2022-08-07T14:55:09.126Z,98814.41
2022-08-07T14:57:58.273Z,98813.22
2022-08-07T15:00:34.625Z,98811.81
2022-08-07T15:03:18.608Z,98809.09
2022-08-07T15:11:54.371Z,98804.13
2022-08-07T15:14:36.053Z,98804.00
2022-08-07T15:17:55.297Z,98798.59
2022-08-07T15:20:33.723Z,98802.75
2022-08-07T15:23:53.545Z,98794.59
2022-08-07T15:26:20.748Z,98796.47
2022-08-07T15:28:55.467Z,98797.31
2022-08-07T15:32:01.656Z,98794.59
2022-08-07T15:34:20.821Z,98788.78
2022-08-07T15:37:04.055Z,98787.13
2022-08-07T15:39:57.070Z,98790.69
2022-08-07T15:42:43.525Z,98781.03
2022-08-07T15:45:13.487Z,98779.59
2022-08-07T15:48:12.554Z,98779.91
2022-08-07T15:51:08.196Z,98785.78
2022-08-07T15:53:53.078Z,98790.97
2022-08-07T15:56:24.248Z,98777.72
2022-08-07T15:59:00.063Z,98773.88
2022-08-07T16:01:38.347Z,98774.00
2022-08-07T16:04:18.049Z,98775.69
2022-08-07T16:07:01.068Z,98767.66
2022-08-07T16:09:42.309Z,98768.50
2022-08-07T16:12:29.211Z,98770.53
2022-08-07T16:15:54.854Z,98768.97
2022-08-07T16:18:49.524Z,98769.53
2022-08-07T16:21:56.938Z,98763.44
2022-08-07T16:24:35.106Z,98771.91
2022-08-07T16:27:18.151Z,98770.63
2022-08-07T16:30:30.499Z,98765.41
2022-08-07T16:34:03.451Z,98763.50
2022-08-07T16:36:19.645Z,98765.94
2022-08-07T16:39:21.038Z,98760.59
2022-08-07T16:42:13.129Z,98757.97
2022-08-07T16:45:15.427Z,98753.63
2022-08-07T16:48:28.715Z,98757.72
2022-08-07T16:51:54.405Z,98765.13
2022-08-07T16:54:09.026Z,98766.47
2022-08-07T16:56:53.260Z,98764.09
2022-08-07T16:59:46.611Z,98762.53
2022-08-07T17:02:53.192Z,98769.53
2022-08-07T17:06:26.734Z,98766.56
2022-08-07T17:09:09.787Z,98765.34
2022-08-07T17:12:01.212Z,98769.06
2022-08-07T17:14:49.045Z,98759.75
2022-08-07T17:17:46.247Z,98767.13
2022-08-07T17:20:30.028Z,98759.00
2022-08-07T17:23:08.646Z,98764.28
2022-08-07T17:25:52.705Z,98763.09
2022-08-07T17:28:49.906Z,98770.13
2022-08-07T17:32:02.474Z,98766.63
2022-08-07T17:35:32.881Z,98765.63
2022-08-07T17:38:05.113Z,98765.09
2022-08-07T17:42:00.849Z,98763.66
2022-08-07T17:44:02.670Z,98757.50
2022-08-07T17:46:57.038Z,98757.50
2022-08-07T17:49:44.636Z,98759.81
2022-08-07T17:52:12.861Z,98762.16
2022-08-07T17:54:53.920Z,98768.00
2022-08-07T17:57:25.004Z,98760.94
2022-08-07T18:00:34.260Z,98757.03
2022-08-07T18:04:04.005Z,98770.16
2022-08-07T18:06:37.046Z,98768.91
2022-08-07T18:09:15.903Z,98769.78
2022-08-07T18:12:16.739Z,98770.84
2022-08-07T18:14:44.908Z,98773.53
2022-08-07T18:19:02.627Z,98775.19
2022-08-07T18:21:11.946Z,98773.97
2022-08-07T18:23:43.068Z,98778.13
2022-08-07T18:26:14.878Z,98783.16
2022-08-07T18:30:07.659Z,98779.38
2022-08-07T18:32:13.699Z,98777.75
2022-08-07T18:35:05.048Z,98784.19
2022-08-07T18:38:56.910Z,98790.19
2022-08-07T18:41:21.047Z,98788.56
2022-08-07T18:43:58.118Z,98785.06
2022-08-07T18:46:37.023Z,98790.47
2022-08-07T18:50:30.304Z,98792.38
2022-08-07T18:52:40.834Z,98788.91
2022-08-07T18:55:43.003Z,98787.53
2022-08-07T18:58:17.008Z,98799.19
2022-08-07T19:00:54.157Z,98790.06
2022-08-07T19:03:52.285Z,98796.69
2022-08-07T19:06:41.128Z,98797.94
2022-08-07T19:09:55.306Z,98815.19
2022-08-07T19:12:26.425Z,98813.78
2022-08-07T19:15:01.454Z,98807.16
2022-08-07T19:18:03.808Z,98811.72
2022-08-07T19:20:39.867Z,98817.50
2022-08-07T19:23:57.982Z,98812.72
2022-08-07T19:26:47.948Z,98816.75
2022-08-07T19:31:04.456Z,98821.53
2022-08-07T19:32:25.867Z,98818.44
2022-08-07T19:35:03.284Z,98813.47
2022-08-07T19:37:56.608Z,98826.56
2022-08-07T19:40:36.819Z,98815.16
2022-08-07T19:43:21.619Z,98824.31
2022-08-07T19:46:01.083Z,98826.78
2022-08-07T19:48:42.672Z,98826.34
2022-08-07T19:51:19.549Z,98827.78
2022-08-07T19:54:34.644Z,98834.03
2022-08-07T19:58:01.163Z,98829.66
2022-08-07T19:59:42.215Z,98831.91
2022-08-07T20:02:19.607Z,98840.44
2022-08-07T20:04:52.273Z,98842.50
2022-08-07T20:07:46.553Z,98839.00
2022-08-07T20:10:36.070Z,98834.66
2022-08-07T20:13:27.149Z,98831.16
2022-08-07T20:16:00.648Z,98833.03
2022-08-07T20:18:36.035Z,98830.09
2022-08-07T20:21:20.937Z,98837.38
2022-08-07T20:24:00.508Z,98840.06
2022-08-07T20:26:32.107Z,98839.69
2022-08-07T20:29:10.468Z,98834.28
2022-08-07T20:31:47.809Z,98835.72
2022-08-07T20:34:49.197Z,98845.06
2022-08-07T20:37:15.225Z,98837.56
2022-08-07T20:40:03.207Z,98845.22
2022-08-07T20:42:39.617Z,98834.66
2022-08-07T20:46:24.963Z,98841.28
2022-08-07T20:48:08.918Z,98841.75
2022-08-07T20:50:43.051Z,98844.66
2022-08-07T20:53:25.859Z,98844.44
2022-08-07T20:56:16.208Z,98846.97
2022-08-07T20:58:56.269Z,98842.81
2022-08-07T21:01:29.618Z,98846.78
2022-08-07T21:04:25.360Z,98846.56
2022-08-07T21:06:57.331Z,98854.25
2022-08-07T21:09:53.055Z,98856.34
2022-08-07T21:12:28.935Z,98862.81
2022-08-07T21:15:06.117Z,98856.81
2022-08-07T21:18:17.331Z,98862.63
2022-08-07T21:20:33.275Z,98859.31
2022-08-07T21:23:08.304Z,98864.91
2022-08-07T21:25:56.692Z,98864.28
2022-08-07T21:28:49.035Z,98866.34
2022-08-07T21:31:50.076Z,98860.56
2022-08-07T21:34:26.724Z,98859.13
2022-08-07T21:37:11.093Z,98858.50
2022-08-07T21:40:10.061Z,98857.88
2022-08-07T21:42:46.518Z,98862.66
2022-08-07T21:46:09.351Z,98858.50
2022-08-07T21:48:56.519Z,98861.41
2022-08-07T21:51:50.953Z,98870.78
2022-08-07T21:54:33.991Z,98870.59
2022-08-07T21:57:03.645Z,98867.72
2022-08-07T22:00:04.424Z,98868.53
2022-08-07T22:02:51.053Z,98868.34
2022-08-07T22:05:45.614Z,98868.97
2022-08-07T22:08:23.258Z,98872.69
2022-08-07T22:10:53.882Z,98878.53
2022-08-07T22:13:52.074Z,98884.75
2022-08-07T22:16:39.514Z,98891.44
2022-08-07T22:19:29.596Z,98887.69
2022-08-07T22:22:17.627Z,98887.69
2022-08-07T22:25:12.199Z,98896.63
2022-08-07T22:28:07.528Z,98899.94
2022-08-07T22:30:39.753Z,98903.00
2022-08-07T22:33:17.984Z,98899.28
2022-08-07T22:36:19.000Z,98907.16
2022-08-07T22:39:11.093Z,98899.69
2022-08-07T22:42:03.539Z,98913.19
2022-08-07T22:44:57.883Z,98909.25
2022-08-07T22:47:49.402Z,98906.13
2022-08-07T22:50:37.707Z,98907.16
2022-08-07T22:54:06.273Z,98913.38
2022-08-07T22:56:38.346Z,98916.88
2022-08-07T22:59:33.963Z,98910.91
2022-08-07T23:02:03.481Z,98909.66
2022-08-07T23:04:58.647Z,98909.00
2022-08-07T23:07:41.824Z,98916.47
2022-08-07T23:10:39.639Z,98916.06
2022-08-07T23:13:49.063Z,98919.97
2022-08-07T23:16:46.482Z,98914.41
2022-08-07T23:20:02.931Z,98923.28
2022-08-07T23:22:33.033Z,98922.44
2022-08-07T23:25:11.153Z,98926.16
2022-08-07T23:28:22.806Z,98924.09
2022-08-07T23:31:11.301Z,98922.44
2022-08-07T23:34:20.846Z,98932.16
2022-08-07T23:37:19.064Z,98933.81
2022-08-07T23:40:01.994Z,98951.19
2022-08-07T23:42:48.007Z,98956.28
2022-08-07T23:46:02.900Z,98956.41
2022-08-07T23:48:51.980Z,98954.34
2022-08-07T23:53:00.668Z,98963.44
2022-08-07T23:54:35.922Z,98965.88
2022-08-07T23:57:28.074Z,98958.41
